sensor_id;sensor_type;location;lat;lon;timestamp;pressure;altitude;pressure_sealevel;temperature;humidity
6668;BME280;3370;47.712;9.082;2023-08-17T00:00:15;97084.59;;;21.34;84.46
6668;BME280;3370;47.712;9.082;2023-08-17T00:02:43;97077.47;;;21.36;84.07
6668;BME280;3370;47.712;9.082;2023-08-17T00:05:10;97078.28;;;21.27;84.74
6668;BME280;3370;47.712;9.082;2023-08-17T00:07:36;97076.31;;;21.19;85.36
6668;BME280;3370;47.712;9.082;2023-08-17T00:10:02;97075.38;;;21.30;85.12
6668;BME280;3370;47.712;9.082;2023-08-17T00:12:28;97069.56;;;21.16;85.46
6668;BME280;3370;47.712;9.082;2023-08-17T00:14:54;97069.69;;;21.05;86.49
6668;BME280;3370;47.712;9.082;2023-08-17T00:17:20;97064.84;;;21.00;86.81
6668;BME280;3370;47.712;9.082;2023-08-17T00:19:46;97068.03;;;21.04;86.61
6668;BME280;3370;47.712;9.082;2023-08-17T00:22:12;97069.16;;;21.11;85.83
6668;BME280;3370;47.712;9.082;2023-08-17T00:24:38;97069.69;;;21.05;86.43
6668;BME280;3370;47.712;9.082;2023-08-17T00:27:06;97068.16;;;20.93;86.59
6668;BME280;3370;47.712;9.082;2023-08-17T00:29:32;97067.16;;;20.84;87.33
6668;BME280;3370;47.712;9.082;2023-08-17T00:31:58;97061.34;;;20.80;87.07
6668;BME280;3370;47.712;9.082;2023-08-17T00:34:23;97064.28;;;20.87;86.69
6668;BME280;3370;47.712;9.082;2023-08-17T00:36:49;97068.53;;;20.88;87.15
6668;BME280;3370;47.712;9.082;2023-08-17T00:39:15;97067.16;;;20.84;87.51
6668;BME280;3370;47.712;9.082;2023-08-17T00:41:41;97067.97;;;20.84;87.18
6668;BME280;3370;47.712;9.082;2023-08-17T00:44:07;97070.16;;;20.79;87.46
6668;BME280;3370;47.712;9.082;2023-08-17T00:46:33;97067.63;;;20.68;87.86
6668;BME280;3370;47.712;9.082;2023-08-17T00:48:59;97071.59;;;20.62;88.81
6668;BME280;3370;47.712;9.082;2023-08-17T00:51:26;97067.00;;;20.55;89.07
6668;BME280;3370;47.712;9.082;2023-08-17T00:53:56;97064.66;;;20.52;89.45
6668;BME280;3370;47.712;9.082;2023-08-17T00:56:23;97058.03;;;20.47;89.81
6668;BME280;3370;47.712;9.082;2023-08-17T00:58:49;97058.28;;;20.44;90.26
6668;BME280;3370;47.712;9.082;2023-08-17T01:01:16;97069.44;;;20.46;90.16
6668;BME280;3370;47.712;9.082;2023-08-17T01:03:42;97068.38;;;20.49;89.83
6668;BME280;3370;47.712;9.082;2023-08-17T01:06:11;97062.28;;;20.48;89.67
6668;BME280;3370;47.712;9.082;2023-08-17T01:08:37;97065.19;;;20.45;90.40
6668;BME280;3370;47.712;9.082;2023-08-17T01:11:30;97062.13;;;20.40;90.62
6668;BME280;3370;47.712;9.082;2023-08-17T01:14:11;97061.31;;;20.40;90.42
6668;BME280;3370;47.712;9.082;2023-08-17T01:19:28;97068.06;;;20.42;90.14
6668;BME280;3370;47.712;9.082;2023-08-17T01:22:08;97065.97;;;20.36;90.72
6668;BME280;3370;47.712;9.082;2023-08-17T01:24:36;97078.75;;;20.39;90.58
6668;BME280;3370;47.712;9.082;2023-08-17T01:27:02;97073.69;;;20.38;91.20
6668;BME280;3370;47.712;9.082;2023-08-17T01:29:28;97077.59;;;20.32;91.27
6668;BME280;3370;47.712;9.082;2023-08-17T01:34:24;97080.88;;;20.24;91.92
6668;BME280;3370;47.712;9.082;2023-08-17T01:36:56;97075.06;;;20.21;91.47
6668;BME280;3370;47.712;9.082;2023-08-17T01:39:31;97070.97;;;20.18;91.56
6668;BME280;3370;47.712;9.082;2023-08-17T01:41:58;97073.00;;;20.15;91.88
6668;BME280;3370;47.712;9.082;2023-08-17T01:44:26;97073.13;;;20.13;92.34
6668;BME280;3370;47.712;9.082;2023-08-17T01:46:53;97080.25;;;20.11;92.46
6668;BME280;3370;47.712;9.082;2023-08-17T01:49:19;97073.06;;;20.03;92.59
6668;BME280;3370;47.712;9.082;2023-08-17T01:51:45;97078.97;;;20.05;92.72
6668;BME280;3370;47.712;9.082;2023-08-17T01:54:10;97086.13;;;20.03;92.74
6668;BME280;3370;47.712;9.082;2023-08-17T01:56:36;97083.75;;;20.00;92.81
6668;BME280;3370;47.712;9.082;2023-08-17T01:59:02;97078.66;;;19.99;93.12
6668;BME280;3370;47.712;9.082;2023-08-17T02:01:28;97084.50;;;19.91;93.81
6668;BME280;3370;47.712;9.082;2023-08-17T02:03:54;97087.00;;;19.92;94.00
6668;BME280;3370;47.712;9.082;2023-08-17T02:06:19;97089.47;;;19.94;93.23
6668;BME280;3370;47.712;9.082;2023-08-17T02:08:45;97085.28;;;19.82;94.35
6668;BME280;3370;47.712;9.082;2023-08-17T02:11:11;97095.00;;;19.80;94.40
6668;BME280;3370;47.712;9.082;2023-08-17T02:13:37;97097.34;;;19.83;93.94
6668;BME280;3370;47.712;9.082;2023-08-17T02:16:06;97089.53;;;19.83;93.74
6668;BME280;3370;47.712;9.082;2023-08-17T02:18:31;97085.75;;;19.76;94.39
6668;BME280;3370;47.712;9.082;2023-08-17T02:20:59;97088.16;;;19.67;95.42
6668;BME280;3370;47.712;9.082;2023-08-17T02:23:24;97081.84;;;19.70;95.72
6668;BME280;3370;47.712;9.082;2023-08-17T02:25:50;97079.47;;;19.67;96.15
6668;BME280;3370;47.712;9.082;2023-08-17T02:28:16;97081.50;;;19.63;96.65
6668;BME280;3370;47.712;9.082;2023-08-17T02:30:42;97076.28;;;19.63;97.11
6668;BME280;3370;47.712;9.082;2023-08-17T02:33:08;97080.53;;;19.76;96.44
6668;BME280;3370;47.712;9.082;2023-08-17T02:35:34;97080.31;;;19.79;96.34
6668;BME280;3370;47.712;9.082;2023-08-17T02:38:00;97069.41;;;19.73;96.97
6668;BME280;3370;47.712;9.082;2023-08-17T02:40:25;97072.75;;;19.64;97.82
6668;BME280;3370;47.712;9.082;2023-08-17T02:42:51;97072.03;;;19.73;97.02
6668;BME280;3370;47.712;9.082;2023-08-17T02:45:17;97071.06;;;19.63;96.69
6668;BME280;3370;47.712;9.082;2023-08-17T02:47:43;97073.19;;;19.69;97.07
6668;BME280;3370;47.712;9.082;2023-08-17T02:50:09;97068.16;;;19.57;97.76
6668;BME280;3370;47.712;9.082;2023-08-17T02:52:35;97077.88;;;19.54;98.40
6668;BME280;3370;47.712;9.082;2023-08-17T02:55:01;97080.16;;;19.48;98.57
6668;BME280;3370;47.712;9.082;2023-08-17T02:57:27;97072.34;;;19.48;98.91
6668;BME280;3370;47.712;9.082;2023-08-17T02:59:52;97072.41;;;19.58;98.43
6668;BME280;3370;47.712;9.082;2023-08-17T03:02:18;97079.16;;;19.60;97.99
6668;BME280;3370;47.712;9.082;2023-08-17T03:04:44;97071.34;;;19.60;97.80
6668;BME280;3370;47.712;9.082;2023-08-17T03:07:10;97072.22;;;19.49;97.81
6668;BME280;3370;47.712;9.082;2023-08-17T03:09:35;97060.97;;;19.49;98.22
6668;BME280;3370;47.712;9.082;2023-08-17T03:12:01;97051.81;;;19.54;98.21
6668;BME280;3370;47.712;9.082;2023-08-17T03:14:27;97054.28;;;19.56;97.33
6668;BME280;3370;47.712;9.082;2023-08-17T03:16:52;97062.25;;;19.54;97.43
6668;BME280;3370;47.712;9.082;2023-08-17T03:19:18;97060.75;;;19.41;98.15
6668;BME280;3370;47.712;9.082;2023-08-17T03:21:44;97058.63;;;19.34;98.68
6668;BME280;3370;47.712;9.082;2023-08-17T03:24:10;97056.38;;;19.30;99.55
6668;BME280;3370;47.712;9.082;2023-08-17T03:26:36;97057.91;;;19.32;99.44
6668;BME280;3370;47.712;9.082;2023-08-17T03:29:02;97052.47;;;19.35;99.08
6668;BME280;3370;47.712;9.082;2023-08-17T03:31:27;97055.53;;;19.41;98.63
6668;BME280;3370;47.712;9.082;2023-08-17T03:33:53;97056.09;;;19.44;98.51
6668;BME280;3370;47.712;9.082;2023-08-17T03:36:20;97053.63;;;19.43;98.81
6668;BME280;3370;47.712;9.082;2023-08-17T03:38:46;97054.44;;;19.43;99.20
6668;BME280;3370;47.712;9.082;2023-08-17T03:41:12;97055.53;;;19.41;99.03
6668;BME280;3370;47.712;9.082;2023-08-17T03:43:38;97060.03;;;19.39;99.36
6668;BME280;3370;47.712;9.082;2023-08-17T03:46:05;97068.34;;;19.32;99.78
6668;BME280;3370;47.712;9.082;2023-08-17T03:48:31;97062.69;;;19.27;100.00
6668;BME280;3370;47.712;9.082;2023-08-17T03:50:57;97057.72;;;19.24;100.00
6668;BME280;3370;47.712;9.082;2023-08-17T03:53:22;97058.81;;;19.22;100.00
6668;BME280;3370;47.712;9.082;2023-08-17T03:55:49;97063.75;;;19.25;100.00
6668;BME280;3370;47.712;9.082;2023-08-17T03:58:16;97062.00;;;19.25;100.00
6668;BME280;3370;47.712;9.082;2023-08-17T04:00:42;97067.91;;;19.27;100.00
6668;BME280;3370;47.712;9.082;2023-08-17T04:03:08;97072.66;;;19.22;100.00
6668;BME280;3370;47.712;9.082;2023-08-17T04:05:34;97069.56;;;19.17;100.00
6668;BME280;3370;47.712;9.082;2023-08-17T04:08:03;97067.91;;;19.16;100.00
6668;BME280;3370;47.712;9.082;2023-08-17T04:10:29;97069.22;;;19.10;100.00
6668;BME280;3370;47.712;9.082;2023-08-17T04:12:56;97069.56;;;19.17;100.00
6668;BME280;3370;47.712;9.082;2023-08-17T04:15:22;97073.13;;;19.16;100.00
6668;BME280;3370;47.712;9.082;2023-08-17T04:17:48;97072.88;;;19.19;100.00
6668;BME280;3370;47.712;9.082;2023-08-17T04:20:14;97070.41;;;19.18;100.00
6668;BME280;3370;47.712;9.082;2023-08-17T04:22:40;97073.84;;;19.18;100.00
6668;BME280;3370;47.712;9.082;2023-08-17T04:25:06;97077.16;;;19.20;99.81
6668;BME280;3370;47.712;9.082;2023-08-17T04:27:33;97073.28;;;19.14;100.00
6668;BME280;3370;47.712;9.082;2023-08-17T04:30:00;97075.53;;;19.08;100.00
6668;BME280;3370;47.712;9.082;2023-08-17T04:32:26;97071.75;;;19.01;100.00
6668;BME280;3370;47.712;9.082;2023-08-17T04:34:51;97070.22;;;18.98;100.00
6668;BME280;3370;47.712;9.082;2023-08-17T04:37:17;97071.75;;;19.01;100.00
6668;BME280;3370;47.712;9.082;2023-08-17T04:39:43;97074.34;;;19.01;100.00
6668;BME280;3370;47.712;9.082;2023-08-17T04:42:10;97075.19;;;18.90;100.00
6668;BME280;3370;47.712;9.082;2023-08-17T04:44:36;97076.50;;;18.84;100.00
6668;BME280;3370;47.712;9.082;2023-08-17T04:47:02;97071.28;;;18.84;100.00
6668;BME280;3370;47.712;9.082;2023-08-17T04:49:27;97074.25;;;18.91;100.00
6668;BME280;3370;47.712;9.082;2023-08-17T04:51:53;97073.75;;;18.97;100.00
6668;BME280;3370;47.712;9.082;2023-08-17T04:54:19;97081.66;;;19.07;100.00
6668;BME280;3370;47.712;9.082;2023-08-17T04:56:45;97083.53;;;19.16;100.00
6668;BME280;3370;47.712;9.082;2023-08-17T04:59:11;97085.22;;;19.17;100.00
6668;BME280;3370;47.712;9.082;2023-08-17T05:01:37;97086.53;;;19.11;100.00
6668;BME280;3370;47.712;9.082;2023-08-17T05:04:03;97085.22;;;19.17;100.00
6668;BME280;3370;47.712;9.082;2023-08-17T05:06:29;97084.97;;;19.20;100.00
6668;BME280;3370;47.712;9.082;2023-08-17T05:08:56;97088.06;;;19.25;100.00
6668;BME280;3370;47.712;9.082;2023-08-17T05:11:22;97087.31;;;19.34;100.00
6668;BME280;3370;47.712;9.082;2023-08-17T05:13:49;97087.78;;;19.28;100.00
6668;BME280;3370;47.712;9.082;2023-08-17T05:16:14;97089.69;;;19.26;100.00
6668;BME280;3370;47.712;9.082;2023-08-17T05:18:40;97089.69;;;19.26;100.00
6668;BME280;3370;47.712;9.082;2023-08-17T05:21:06;97091.81;;;19.32;100.00
6668;BME280;3370;47.712;9.082;2023-08-17T05:23:32;97104.13;;;19.42;100.00
6668;BME280;3370;47.712;9.082;2023-08-17T05:25:58;97101.97;;;19.47;100.00
6668;BME280;3370;47.712;9.082;2023-08-17T05:28:24;97104.66;;;19.57;100.00
6668;BME280;3370;47.712;9.082;2023-08-17T05:30:50;97105.13;;;19.62;100.00
6668;BME280;3370;47.712;9.082;2023-08-17T05:33:16;97110.41;;;19.71;100.00
6668;BME280;3370;47.712;9.082;2023-08-17T05:35:41;97105.13;;;19.73;100.00
6668;BME280;3370;47.712;9.082;2023-08-17T05:38:08;97110.22;;;19.75;100.00
6668;BME280;3370;47.712;9.082;2023-08-17T05:40:35;97117.41;;;19.82;100.00
6668;BME280;3370;47.712;9.082;2023-08-17T05:43:01;97111.78;;;19.87;100.00
6668;BME280;3370;47.712;9.082;2023-08-17T05:45:27;97115.72;;;19.92;100.00
6668;BME280;3370;47.712;9.082;2023-08-17T05:47:53;97114.50;;;19.97;100.00
6668;BME280;3370;47.712;9.082;2023-08-17T05:50:19;97115.88;;;20.01;100.00
6668;BME280;3370;47.712;9.082;2023-08-17T05:52:45;97119.78;;;20.06;100.00
6668;BME280;3370;47.712;9.082;2023-08-17T05:55:11;97122.13;;;20.09;100.00
6668;BME280;3370;47.712;9.082;2023-08-17T05:57:37;97120.47;;;20.08;100.00
6668;BME280;3370;47.712;9.082;2023-08-17T06:00:03;97117.03;;;20.08;100.00
6668;BME280;3370;47.712;9.082;2023-08-17T06:02:29;97114.56;;;20.06;100.00
6668;BME280;3370;47.712;9.082;2023-08-17T06:04:55;97112.41;;;20.11;100.00
6668;BME280;3370;47.712;9.082;2023-08-17T06:07:21;97108.38;;;20.07;100.00
6668;BME280;3370;47.712;9.082;2023-08-17T06:09:47;97115.41;;;20.07;100.00
6668;BME280;3370;47.712;9.082;2023-08-17T06:12:12;97112.41;;;20.11;100.00
6668;BME280;3370;47.712;9.082;2023-08-17T06:14:38;97119.97;;;20.15;100.00
6668;BME280;3370;47.712;9.082;2023-08-17T06:17:04;97119.72;;;20.18;100.00
6668;BME280;3370;47.712;9.082;2023-08-17T06:19:30;97120.84;;;20.25;100.00
6668;BME280;3370;47.712;9.082;2023-08-17T06:21:55;97123.66;;;20.33;100.00
6668;BME280;3370;47.712;9.082;2023-08-17T06:24:21;97122.91;;;20.42;100.00
6668;BME280;3370;47.712;9.082;2023-08-17T06:26:47;97118.69;;;20.51;100.00
6668;BME280;3370;47.712;9.082;2023-08-17T06:29:13;97117.09;;;20.60;100.00
6668;BME280;3370;47.712;9.082;2023-08-17T06:31:38;97121.81;;;20.66;100.00
6668;BME280;3370;47.712;9.082;2023-08-17T06:34:04;97119.06;;;20.67;100.00
6668;BME280;3370;47.712;9.082;2023-08-17T06:36:31;97119.38;;;20.74;100.00
6668;BME280;3370;47.712;9.082;2023-08-17T06:38:58;97115.00;;;20.84;100.00
6668;BME280;3370;47.712;9.082;2023-08-17T06:41:24;97118.97;;;20.79;100.00
6668;BME280;3370;47.712;9.082;2023-08-17T06:43:51;97124.31;;;20.77;100.00
6668;BME280;3370;47.712;9.082;2023-08-17T06:46:17;97120.19;;;20.75;100.00
6668;BME280;3370;47.712;9.082;2023-08-17T06:48:43;97119.66;;;20.81;100.00
6668;BME280;3370;47.712;9.082;2023-08-17T06:51:09;97124.78;;;20.82;100.00
6668;BME280;3370;47.712;9.082;2023-08-17T06:53:35;97118.28;;;20.77;100.00
6668;BME280;3370;47.712;9.082;2023-08-17T06:56:01;97120.53;;;20.91;100.00
6668;BME280;3370;47.712;9.082;2023-08-17T06:58:27;97126.00;;;20.78;100.00
6668;BME280;3370;47.712;9.082;2023-08-17T07:00:52;97120.53;;;20.91;100.00
6668;BME280;3370;47.712;9.082;2023-08-17T07:03:18;97118.63;;;20.93;100.00
6668;BME280;3370;47.712;9.082;2023-08-17T07:05:44;97125.53;;;20.94;100.00
6668;BME280;3370;47.712;9.082;2023-08-17T07:08:10;97122.66;;;21.07;100.00
6668;BME280;3370;47.712;9.082;2023-08-17T07:10:36;97114.72;;;20.78;100.00
6668;BME280;3370;47.712;9.082;2023-08-17T07:13:02;97119.03;;;20.89;100.00
6668;BME280;3370;47.712;9.082;2023-08-17T07:15:30;97117.31;;;21.09;100.00
6668;BME280;3370;47.712;9.082;2023-08-17T07:17:56;97124.25;;;20.89;100.00
6668;BME280;3370;47.712;9.082;2023-08-17T07:20:22;97126.06;;;20.98;100.00
6668;BME280;3370;47.712;9.082;2023-08-17T07:22:47;97126.78;;;21.00;100.00
6668;BME280;3370;47.712;9.082;2023-08-17T07:25:13;97126.50;;;21.03;100.00
6668;BME280;3370;47.712;9.082;2023-08-17T07:27:39;97122.47;;;20.89;100.00
6668;BME280;3370;47.712;9.082;2023-08-17T07:30:06;97120.56;;;21.01;98.25
6668;BME280;3370;47.712;9.082;2023-08-17T07:32:33;97119.94;;;21.18;100.00
6668;BME280;3370;47.712;9.082;2023-08-17T07:34:59;97119.56;;;21.33;97.73
6668;BME280;3370;47.712;9.082;2023-08-17T07:37:25;97118.44;;;21.25;95.18
6668;BME280;3370;47.712;9.082;2023-08-17T07:39:58;97122.31;;;21.41;97.26
6668;BME280;3370;47.712;9.082;2023-08-17T07:42:24;97124.88;;;21.52;96.78
6668;BME280;3370;47.712;9.082;2023-08-17T07:44:51;97127.63;;;21.60;96.80
6668;BME280;3370;47.712;9.082;2023-08-17T07:47:17;97126.78;;;21.60;94.99
6668;BME280;3370;47.712;9.082;2023-08-17T07:49:43;97127.09;;;21.67;97.50
6668;BME280;3370;47.712;9.082;2023-08-17T07:52:08;97127.34;;;21.63;97.41
6668;BME280;3370;47.712;9.082;2023-08-17T07:54:34;97129.84;;;21.65;95.89
6668;BME280;3370;47.712;9.082;2023-08-17T07:57:00;97121.13;;;21.64;96.78
6668;BME280;3370;47.712;9.082;2023-08-17T07:59:26;97131.34;;;21.68;97.03
6668;BME280;3370;47.712;9.082;2023-08-17T08:01:52;97130.66;;;21.85;92.66
6668;BME280;3370;47.712;9.082;2023-08-17T08:04:17;97131.09;;;21.90;97.39
6668;BME280;3370;47.712;9.082;2023-08-17T08:06:43;97132.03;;;21.89;94.95
6668;BME280;3370;47.712;9.082;2023-08-17T08:09:09;97133.44;;;21.74;93.82
6668;BME280;3370;47.712;9.082;2023-08-17T08:11:35;97133.97;;;21.87;94.84
6668;BME280;3370;47.712;9.082;2023-08-17T08:14:00;97129.56;;;21.88;93.96
6668;BME280;3370;47.712;9.082;2023-08-17T08:16:27;97123.78;;;21.94;93.69
6668;BME280;3370;47.712;9.082;2023-08-17T08:18:56;97127.63;;;21.90;94.60
6668;BME280;3370;47.712;9.082;2023-08-17T08:21:22;97126.66;;;22.00;93.36
6668;BME280;3370;47.712;9.082;2023-08-17T08:23:47;97126.22;;;22.15;93.53
6668;BME280;3370;47.712;9.082;2023-08-17T08:26:13;97134.38;;;22.31;93.75
6668;BME280;3370;47.712;9.082;2023-08-17T08:28:40;97134.22;;;22.43;91.40
6668;BME280;3370;47.712;9.082;2023-08-17T08:31:05;97130.91;;;22.40;89.67
6668;BME280;3370;47.712;9.082;2023-08-17T08:33:31;97124.28;;;22.46;87.87
6668;BME280;3370;47.712;9.082;2023-08-17T08:35:57;97135.28;;;22.59;87.21
6668;BME280;3370;47.712;9.082;2023-08-17T08:38:24;97130.31;;;22.66;88.37
6668;BME280;3370;47.712;9.082;2023-08-17T08:40:50;97130.69;;;22.71;87.16
6668;BME280;3370;47.712;9.082;2023-08-17T08:43:16;97127.19;;;22.81;85.94
6668;BME280;3370;47.712;9.082;2023-08-17T08:45:42;97129.34;;;23.05;85.55
6668;BME280;3370;47.712;9.082;2023-08-17T08:48:11;97133.72;;;23.14;84.97
6668;BME280;3370;47.712;9.082;2023-08-17T08:50:40;97135.13;;;23.08;83.79
6668;BME280;3370;47.712;9.082;2023-08-17T08:53:14;97133.47;;;23.07;84.93
6668;BME280;3370;47.712;9.082;2023-08-17T08:55:55;97129.88;;;22.98;84.34
6668;BME280;3370;47.712;9.082;2023-08-17T08:58:22;97139.75;;;23.24;82.89
6668;BME280;3370;47.712;9.082;2023-08-17T09:00:48;97133.38;;;23.27;81.34
6668;BME280;3370;47.712;9.082;2023-08-17T09:03:15;97129.22;;;23.06;81.61
6668;BME280;3370;47.712;9.082;2023-08-17T09:05:47;97131.03;;;23.24;80.47
6668;BME280;3370;47.712;9.082;2023-08-17T09:08:14;97126.09;;;23.39;80.72
6668;BME280;3370;47.712;9.082;2023-08-17T09:10:41;97123.16;;;23.51;79.37
6668;BME280;3370;47.712;9.082;2023-08-17T09:13:07;97120.56;;;23.42;75.48
6668;BME280;3370;47.712;9.082;2023-08-17T09:15:34;97127.88;;;23.66;78.02
6668;BME280;3370;47.712;9.082;2023-08-17T09:18:00;97123.69;;;23.91;78.11
6668;BME280;3370;47.712;9.082;2023-08-17T09:20:44;97128.22;;;23.99;77.08
6668;BME280;3370;47.712;9.082;2023-08-17T09:23:17;97134.63;;;24.22;75.32
6668;BME280;3370;47.712;9.082;2023-08-17T09:25:46;97128.13;;;24.35;69.36
6668;BME280;3370;47.712;9.082;2023-08-17T09:28:14;97129.16;;;24.42;61.25
6668;BME280;3370;47.712;9.082;2023-08-17T09:30:53;97133.66;;;24.67;63.56
6668;BME280;3370;47.712;9.082;2023-08-17T09:33:25;97122.78;;;24.62;56.24
6668;BME280;3370;47.712;9.082;2023-08-17T09:35:53;97128.78;;;24.55;59.45
6668;BME280;3370;47.712;9.082;2023-08-17T09:38:19;97132.25;;;24.55;59.30
6668;BME280;3370;47.712;9.082;2023-08-17T09:40:47;97127.75;;;24.47;58.02
6668;BME280;3370;47.712;9.082;2023-08-17T09:43:14;97129.63;;;24.55;59.19
6668;BME280;3370;47.712;9.082;2023-08-17T09:45:43;97131.78;;;24.60;61.50
6668;BME280;3370;47.712;9.082;2023-08-17T09:48:16;97126.50;;;24.86;57.65
6668;BME280;3370;47.712;9.082;2023-08-17T09:50:44;97122.84;;;25.13;56.28
6668;BME280;3370;47.712;9.082;2023-08-17T09:53:15;97118.09;;;25.17;56.41
6668;BME280;3370;47.712;9.082;2023-08-17T09:55:43;97123.63;;;25.40;59.74
6668;BME280;3370;47.712;9.082;2023-08-17T09:58:09;97118.31;;;25.32;59.02
6668;BME280;3370;47.712;9.082;2023-08-17T10:00:36;97122.69;;;25.23;60.87
6668;BME280;3370;47.712;9.082;2023-08-17T10:03:04;97118.78;;;25.27;62.31
6668;BME280;3370;47.712;9.082;2023-08-17T10:05:35;97111.44;;;25.39;63.72
6668;BME280;3370;47.712;9.082;2023-08-17T10:08:04;97119.13;;;25.24;65.75
6668;BME280;3370;47.712;9.082;2023-08-17T10:10:35;97110.28;;;25.41;65.27
6668;BME280;3370;47.712;9.082;2023-08-17T10:16:21;97112.44;;;25.46;65.31
6668;BME280;3370;47.712;9.082;2023-08-17T10:19:09;97111.97;;;25.59;64.44
6668;BME280;3370;47.712;9.082;2023-08-17T10:21:56;97116.28;;;25.85;69.37
6668;BME280;3370;47.712;9.082;2023-08-17T10:24:26;97118.25;;;25.82;66.46
6668;BME280;3370;47.712;9.082;2023-08-17T10:26:52;97113.66;;;25.76;65.62
6668;BME280;3370;47.712;9.082;2023-08-17T10:29:22;97108.03;;;25.79;65.38
6668;BME280;3370;47.712;9.082;2023-08-17T10:31:49;97100.16;;;25.88;63.84
6668;BME280;3370;47.712;9.082;2023-08-17T10:34:15;97103.44;;;25.90;63.23
6668;BME280;3370;47.712;9.082;2023-08-17T10:36:42;97095.88;;;26.19;62.25
6668;BME280;3370;47.712;9.082;2023-08-17T10:39:29;97094.91;;;26.29;62.82
6668;BME280;3370;47.712;9.082;2023-08-17T10:41:57;97100.47;;;26.34;61.36
6668;BME280;3370;47.712;9.082;2023-08-17T10:44:43;97096.50;;;26.54;61.90
6668;BME280;3370;47.712;9.082;2023-08-17T10:47:26;97085.22;;;26.85;60.26
6668;BME280;3370;47.712;9.082;2023-08-17T10:49:58;97087.94;;;26.44;61.13
6668;BME280;3370;47.712;9.082;2023-08-17T10:52:34;97081.13;;;26.74;60.13
6668;BME280;3370;47.712;9.082;2023-08-17T10:55:08;97089.16;;;27.21;60.04
6668;BME280;3370;47.712;9.082;2023-08-17T10:57:42;97087.97;;;27.31;58.23
6668;BME280;3370;47.712;9.082;2023-08-17T11:00:18;97089.00;;;27.22;57.35
6668;BME280;3370;47.712;9.082;2023-08-17T11:03:10;97087.72;;;27.18;56.01
6668;BME280;3370;47.712;9.082;2023-08-17T11:05:53;97076.97;;;27.51;56.16
6668;BME280;3370;47.712;9.082;2023-08-17T11:08:37;97079.22;;;27.62;56.67
6668;BME280;3370;47.712;9.082;2023-08-17T11:11:13;97077.81;;;27.75;53.71
6668;BME280;3370;47.712;9.082;2023-08-17T11:13:45;97069.78;;;27.83;55.71
6668;BME280;3370;47.712;9.082;2023-08-17T11:16:13;97073.28;;;27.83;54.44
6668;BME280;3370;47.712;9.082;2023-08-17T11:18:39;97074.72;;;27.94;52.40
6668;BME280;3370;47.712;9.082;2023-08-17T11:21:07;97063.66;;;27.67;53.60
6668;BME280;3370;47.712;9.082;2023-08-17T11:23:36;97060.38;;;27.88;53.59
6668;BME280;3370;47.712;9.082;2023-08-17T11:26:03;97065.84;;;28.25;55.09
6668;BME280;3370;47.712;9.082;2023-08-17T11:28:30;97061.03;;;28.43;51.05
6668;BME280;3370;47.712;9.082;2023-08-17T11:31:06;97054.72;;;28.89;52.34
6668;BME280;3370;47.712;9.082;2023-08-17T11:33:33;97054.53;;;28.91;50.16
6668;BME280;3370;47.712;9.082;2023-08-17T11:36:01;97059.09;;;29.70;49.40
6668;BME280;3370;47.712;9.082;2023-08-17T11:38:41;97053.44;;;29.00;50.54
6668;BME280;3370;47.712;9.082;2023-08-17T11:41:08;97049.88;;;28.93;52.27
6668;BME280;3370;47.712;9.082;2023-08-17T11:43:35;97049.25;;;28.91;50.88
6668;BME280;3370;47.712;9.082;2023-08-17T11:46:02;97047.91;;;28.65;51.79
6668;BME280;3370;47.712;9.082;2023-08-17T11:48:28;97054.28;;;29.58;54.56
6668;BME280;3370;47.712;9.082;2023-08-17T11:50:54;97048.16;;;29.58;52.35
6668;BME280;3370;47.712;9.082;2023-08-17T11:53:21;97050.75;;;29.73;52.42
6668;BME280;3370;47.712;9.082;2023-08-17T11:55:47;97058.69;;;30.44;51.63
6668;BME280;3370;47.712;9.082;2023-08-17T11:58:13;97064.53;;;30.11;50.03
6668;BME280;3370;47.712;9.082;2023-08-17T12:00:43;97069.56;;;29.78;50.45
6668;BME280;3370;47.712;9.082;2023-08-17T12:03:15;97058.94;;;29.35;51.31
6668;BME280;3370;47.712;9.082;2023-08-17T12:05:43;97060.13;;;29.32;51.41
6668;BME280;3370;47.712;9.082;2023-08-17T12:08:09;97061.66;;;29.63;51.73
6668;BME280;3370;47.712;9.082;2023-08-17T12:10:37;97060.81;;;30.06;49.77
6668;BME280;3370;47.712;9.082;2023-08-17T12:13:03;97061.09;;;30.39;49.37
6668;BME280;3370;47.712;9.082;2023-08-17T12:15:33;97066.19;;;30.75;47.69
6668;BME280;3370;47.712;9.082;2023-08-17T12:18:03;97053.81;;;31.44;46.89
6668;BME280;3370;47.712;9.082;2023-08-17T12:20:29;97050.13;;;31.39;45.96
6668;BME280;3370;47.712;9.082;2023-08-17T12:22:58;97052.44;;;31.00;45.67
6668;BME280;3370;47.712;9.082;2023-08-17T12:25:25;97050.47;;;31.15;46.10
6668;BME280;3370;47.712;9.082;2023-08-17T12:27:51;97052.25;;;31.77;46.14
6668;BME280;3370;47.712;9.082;2023-08-17T12:30:31;97052.63;;;31.87;45.04
6668;BME280;3370;47.712;9.082;2023-08-17T12:32:58;97042.00;;;32.00;45.33
6668;BME280;3370;47.712;9.082;2023-08-17T12:35:25;97052.84;;;32.39;43.29
6668;BME280;3370;47.712;9.082;2023-08-17T12:37:52;97047.34;;;32.00;44.97
6668;BME280;3370;47.712;9.082;2023-08-17T12:40:19;97041.94;;;32.54;43.96
6668;BME280;3370;47.712;9.082;2023-08-17T12:42:45;97038.34;;;31.95;46.02
6668;BME280;3370;47.712;9.082;2023-08-17T12:45:11;97038.50;;;31.60;44.63
6668;BME280;3370;47.712;9.082;2023-08-17T12:47:36;97035.84;;;32.00;47.21
6668;BME280;3370;47.712;9.082;2023-08-17T12:50:04;97039.13;;;31.48;45.02
6668;BME280;3370;47.712;9.082;2023-08-17T12:52:29;97038.09;;;31.76;44.58
6668;BME280;3370;47.712;9.082;2023-08-17T12:54:55;97045.91;;;31.71;43.39
6668;BME280;3370;47.712;9.082;2023-08-17T12:57:21;97044.47;;;31.75;45.08
6668;BME280;3370;47.712;9.082;2023-08-17T12:59:47;97044.44;;;31.62;43.26
6668;BME280;3370;47.712;9.082;2023-08-17T13:02:12;97053.66;;;31.72;36.73
6668;BME280;3370;47.712;9.082;2023-08-17T13:04:39;97050.19;;;31.59;36.89
6668;BME280;3370;47.712;9.082;2023-08-17T13:07:05;97047.03;;;31.42;37.69
6668;BME280;3370;47.712;9.082;2023-08-17T13:09:31;97055.22;;;31.40;38.70
6668;BME280;3370;47.712;9.082;2023-08-17T13:11:57;97056.00;;;31.21;38.24
6668;BME280;3370;47.712;9.082;2023-08-17T13:14:22;97046.78;;;31.10;39.67
6668;BME280;3370;47.712;9.082;2023-08-17T13:16:49;97046.97;;;31.08;39.18
6668;BME280;3370;47.712;9.082;2023-08-17T13:19:15;97042.47;;;31.02;39.06
6668;BME280;3370;47.712;9.082;2023-08-17T13:21:41;97042.66;;;31.07;38.96
6668;BME280;3370;47.712;9.082;2023-08-17T13:24:07;97040.19;;;30.99;38.91
6668;BME280;3370;47.712;9.082;2023-08-17T13:26:34;97044.34;;;30.38;34.91
6668;BME280;3370;47.712;9.082;2023-08-17T13:29:00;97035.06;;;30.56;35.94